RA43 UWGG-UWGG
Flight info
| Callsign | RA43 |
|---|---|
| Flight time | 0h 15m |
| Altitude | 30000 |
| Route | DCT |
| Aircraft | SU27/M-SDFGRZ/C |
Departure
| Time | 2026-05-08 18:11 |
|---|---|
| Airport | Nizhny Novgorod / Strigino International Airport (UWGG) |
Arrival
| Time | 2026-05-08 18:26 |
|---|---|
| Airport | Nizhny Novgorod / Strigino International Airport (UWGG) |
| Time | Latitude | Longitude | Altitude | Speed | Heading |
|---|---|---|---|---|---|
| 2026-05-08 18:07 | 56.22338 | 43.78890 | 263 ft | 0 kts | 147° |
| 2026-05-08 18:08 | 56.22325 | 43.78904 | 263 ft | 6 kts | 147° |
| 2026-05-08 18:08 | 56.22266 | 43.78923 | 263 ft | 12 kts | 193° |
| 2026-05-08 18:08 | 56.22247 | 43.78918 | 263 ft | 13 kts | 186° |
| 2026-05-08 18:09 | 56.22113 | 43.78869 | 263 ft | 22 kts | 191° |
| 2026-05-08 18:09 | 56.22022 | 43.78739 | 263 ft | 15 kts | 196° |
| 2026-05-08 18:09 | 56.21934 | 43.78686 | 263 ft | 14 kts | 232° |
| 2026-05-08 18:09 | 56.21926 | 43.78493 | 263 ft | 17 kts | 278° |
| 2026-05-08 18:10 | 56.21935 | 43.78402 | 263 ft | 3 kts | 282° |
| 2026-05-08 18:10 | 56.21937 | 43.78385 | 263 ft | 0 kts | 282° |
| 2026-05-08 18:10 | 56.21963 | 43.78237 | 263 ft | 20 kts | 319° |
| 2026-05-08 18:10 | 56.22250 | 43.78312 | 264 ft | 116 kts | 11° |
| 2026-05-08 18:11 | 56.23911 | 43.78702 | 712 ft | 362 kts | 1° |
| 2026-05-08 18:11 | 56.26964 | 43.79516 | 1808 ft | 479 kts | 58° |
| 2026-05-08 18:11 | 56.28830 | 43.84394 | 2404 ft | 472 kts | 50° |
| 2026-05-08 18:11 | 56.30618 | 43.88521 | 4923 ft | 340 kts | 73° |
| 2026-05-08 18:12 | 56.31051 | 43.90187 | 1796 ft | 189 kts | 58° |
| 2026-05-08 18:12 | 56.31800 | 43.92633 | 1501 ft | 183 kts | 53° |
| 2026-05-08 18:12 | 56.31683 | 43.94251 | 2395 ft | 178 kts | 214° |
| 2026-05-08 18:12 | 56.30115 | 43.93521 | 2436 ft | 291 kts | 194° |
| 2026-05-08 18:13 | 56.27701 | 43.92526 | 2613 ft | 417 kts | 195° |
| 2026-05-08 18:13 | 56.25371 | 43.91566 | 2684 ft | 292 kts | 195° |
| 2026-05-08 18:13 | 56.23350 | 43.90750 | 2744 ft | 302 kts | 195° |
| 2026-05-08 18:13 | 56.21278 | 43.89945 | 2816 ft | 301 kts | 193° |
| 2026-05-08 18:14 | 56.19279 | 43.89178 | 2819 ft | 288 kts | 192° |
| 2026-05-08 18:14 | 56.17347 | 43.88506 | 2803 ft | 278 kts | 193° |
| 2026-05-08 18:14 | 56.15477 | 43.87859 | 2749 ft | 270 kts | 193° |
| 2026-05-08 18:14 | 56.13659 | 43.87234 | 2700 ft | 263 kts | 193° |
| 2026-05-08 18:15 | 56.11887 | 43.86631 | 2648 ft | 256 kts | 193° |
| 2026-05-08 18:15 | 56.10271 | 43.85624 | 2404 ft | 249 kts | 221° |
| 2026-05-08 18:15 | 56.09327 | 43.83244 | 2302 ft | 231 kts | 266° |
| 2026-05-08 18:15 | 56.09046 | 43.80472 | 2432 ft | 221 kts | 266° |
| 2026-05-08 18:16 | 56.08763 | 43.77825 | 2491 ft | 212 kts | 266° |
| 2026-05-08 18:16 | 56.08479 | 43.75277 | 2548 ft | 203 kts | 269° |
| 2026-05-08 18:16 | 56.09006 | 43.73150 | 1937 ft | 200 kts | 341° |
| 2026-05-08 18:16 | 56.10277 | 43.73468 | 1811 ft | 184 kts | 17° |
| 2026-05-08 18:17 | 56.11441 | 43.74236 | 1478 ft | 173 kts | 12° |
| 2026-05-08 18:17 | 56.12558 | 43.74795 | 1376 ft | 176 kts | 9° |
| 2026-05-08 18:17 | 56.13985 | 43.75402 | 1627 ft | 226 kts | 11° |
| 2026-05-08 18:17 | 56.15458 | 43.75925 | 1559 ft | 215 kts | 7° |
| 2026-05-08 18:18 | 56.16844 | 43.76408 | 1279 ft | 193 kts | 10° |
| 2026-05-08 18:18 | 56.18094 | 43.76898 | 907 ft | 186 kts | 8° |
| 2026-05-08 18:18 | 56.19386 | 43.77344 | 738 ft | 192 kts | 8° |
| 2026-05-08 18:18 | 56.20799 | 43.77862 | 368 ft | 210 kts | 6° |
| 2026-05-08 18:19 | 56.21939 | 43.78211 | 263 ft | 102 kts | 11° |
| 2026-05-08 18:19 | 56.22520 | 43.78408 | 262 ft | 118 kts | 9° |
| 2026-05-08 18:19 | 56.23280 | 43.78749 | 3114 ft | 17 kts | 358° |
| 2026-05-08 18:19 | 56.23738 | 43.79425 | 6894 ft | 199 kts | 29° |
| 2026-05-08 18:20 | 56.24711 | 43.82324 | 7268 ft | 359 kts | 134° |
| 2026-05-08 18:20 | 56.21652 | 43.83732 | 4908 ft | 609 kts | 177° |
| 2026-05-08 18:20 | 56.17626 | 43.83944 | 3347 ft | 506 kts | 178° |
| 2026-05-08 18:20 | 56.14072 | 43.84208 | 3510 ft | 516 kts | 176° |
| 2026-05-08 18:21 | 56.10925 | 43.82894 | 4661 ft | 407 kts | 200° |
| 2026-05-08 18:21 | 56.08553 | 43.81474 | 2392 ft | 308 kts | 241° |
| 2026-05-08 18:21 | 56.06915 | 43.80343 | 3057 ft | 272 kts | 204° |
| 2026-05-08 18:21 | 56.05343 | 43.78902 | 3707 ft | 252 kts | 245° |
| 2026-05-08 18:22 | 56.05326 | 43.76029 | 3498 ft | 217 kts | 303° |
| 2026-05-08 18:22 | 56.06334 | 43.74399 | 3377 ft | 185 kts | 333° |
| 2026-05-08 18:22 | 56.07462 | 43.73518 | 3047 ft | 174 kts | 356° |
| 2026-05-08 18:22 | 56.08642 | 43.73828 | 2796 ft | 159 kts | 6° |
| 2026-05-08 18:23 | 56.09658 | 43.73815 | 2597 ft | 140 kts | 7° |
| 2026-05-08 18:23 | 56.10622 | 43.74263 | 2104 ft | 141 kts | 10° |
| 2026-05-08 18:23 | 56.11531 | 43.74688 | 1789 ft | 129 kts | 10° |
| 2026-05-08 18:23 | 56.12415 | 43.75029 | 1627 ft | 138 kts | 8° |
| 2026-05-08 18:24 | 56.13321 | 43.75313 | 1262 ft | 138 kts | 4° |
| 2026-05-08 18:24 | 56.14147 | 43.75565 | 804 ft | 125 kts | 10° |
| 2026-05-08 18:24 | 56.15176 | 43.75930 | 1002 ft | 144 kts | 2° |
| 2026-05-08 18:24 | 56.16124 | 43.76027 | 829 ft | 135 kts | 7° |
| 2026-05-08 18:25 | 56.17054 | 43.76369 | 845 ft | 146 kts | 11° |
| 2026-05-08 18:25 | 56.17695 | 43.76664 | 1052 ft | 137 kts | 9° |
| 2026-05-08 18:25 | 56.18812 | 43.77114 | 818 ft | 186 kts | 7° |
| 2026-05-08 18:25 | 56.20224 | 43.77598 | 722 ft | 203 kts | 8° |
| 2026-05-08 18:26 | 56.21289 | 43.77964 | 354 ft | 149 kts | 9° |
| 2026-05-08 18:26 | 56.21841 | 43.78149 | 263 ft | 2 kts | 9° |
| 2026-05-08 18:26 | 56.21944 | 43.78247 | 263 ft | 17 kts | 81° |
| 2026-05-08 18:26 | 56.21932 | 43.78419 | 263 ft | 2 kts | 103° |
| 2026-05-08 18:27 | 56.21931 | 43.78427 | 263 ft | 0 kts | 103° |
| 2026-05-08 18:27 | 56.21920 | 43.78526 | 263 ft | 26 kts | 101° |
| 2026-05-08 18:27 | 56.21933 | 43.78692 | 263 ft | 0 kts | 44° |
| 2026-05-08 18:28 | 56.21946 | 43.78698 | 263 ft | 6 kts | 355° |
| 2026-05-08 18:28 | 56.21992 | 43.78658 | 263 ft | 11 kts | 335° |
| 2026-05-08 18:28 | 56.22051 | 43.78676 | 263 ft | 29 kts | 17° |
| 2026-05-08 18:28 | 56.22074 | 43.78777 | 263 ft | 0 kts | 108° |
| 2026-05-08 18:29 | 56.22073 | 43.78852 | 263 ft | 0 kts | 56° |
| 2026-05-08 18:29 | 56.22176 | 43.78890 | 263 ft | 27 kts | 13° |
| 2026-05-08 18:29 | 56.22284 | 43.78964 | 263 ft | 13 kts | 103° |
| 2026-05-08 18:29 | 56.22221 | 43.78939 | 263 ft | 13 kts | 144° |
| 2026-05-08 18:30 | 56.22211 | 43.78980 | 263 ft | 0 kts | 99° |